Hauptseite
METAR-TAF:

METAR-TAF

Flughäfen :

London City Airport

London, England

Breite: 51-30N, Länge: 000-03E, Höhe: 5 m

Beobachtung

Neuester Wetterbericht von vor 22 Minuten, um 18:50 UTC
Wind 4 kt aus Nordost, variierte zwischen Nord und Ost
Temperatur 8°C
Luftfeuchtigkeit 71%
Luftdruck 1026 hPa
Sichtweite 10 km oder mehr

METAR: EGLC 181850Z AUTO 05004KT 350V100 9999 NCD 08/03 Q1026

Zeit: 19:12 (19:12 UTC)

Prognose

Neuester Wetterbericht von vor 2 Stunden und 11 Minuten, um 17:01 UTC
Gültige Prognose vom 18 um 18 UTC bis 18 um 21 UTC
Wind 12 kt aus Ost/Nordost
Sichtweite 10 km oder mehr
keine Wolken unter 1500 m und keine Kumulonimbus oder Gewitterwolken

TAF: EGLC 181701Z 1818/1821 07012KT CAVOK

Wetterbeobachtungen und Prognosen von mehr als 4000 Flughäfen (METAR und TAF Bericht).

Die verfügbaren Stationen werden durch gelbe und rote Markierungen auf der Karte dargestellt.

Führen Sie die Maus auf sie, um den Namen der Station zu sehen.

Darauf klicken, um die Beobachtung von Wetterbeobachtungen und Prognosen zu sehen.

Um die Karte zu ändern : klicken Sie auf den grünen Tasten mit einem schwarzen Kreuz Zum Vergrößern, auf den grünen Button mit einem Gedankenstrich zu verkleinern, oder auf die grünen Pfeile für benachbarte Karten.


METAR-TAF: